createdAt,value
2023-02-28T00:00:16.210Z,11.07
2023-02-28T00:02:43.937Z,12.07
2023-02-28T00:05:12.135Z,11.52
2023-02-28T00:07:39.299Z,9.05
2023-02-28T00:10:08.209Z,10.27
2023-02-28T00:12:35.945Z,9.85
2023-02-28T00:15:03.404Z,12.23
2023-02-28T00:17:30.547Z,9.45
2023-02-28T00:19:57.991Z,10.35
2023-02-28T00:22:25.126Z,10.48
2023-02-28T00:24:52.313Z,9.93
2023-02-28T00:27:19.471Z,10.75
2023-02-28T00:29:48.675Z,9.25
2023-02-28T00:32:16.073Z,10.85
2023-02-28T00:34:43.319Z,10.30
2023-02-28T00:37:10.839Z,9.93
2023-02-28T00:39:38.339Z,11.23
2023-02-28T00:42:05.497Z,12.40
2023-02-28T00:44:32.689Z,10.90
2023-02-28T00:47:00.047Z,9.48
2023-02-28T00:49:27.854Z,10.80
2023-02-28T00:51:55.562Z,9.77
2023-02-28T00:54:22.898Z,11.32
2023-02-28T00:56:50.140Z,9.43
2023-02-28T00:59:17.524Z,10.93
2023-02-28T01:01:45.172Z,8.38
2023-02-28T01:04:12.425Z,8.80
2023-02-28T01:06:39.658Z,7.65
2023-02-28T01:09:07.382Z,9.53
2023-02-28T01:11:34.616Z,7.60
2023-02-28T01:14:01.752Z,10.20
2023-02-28T01:16:29.074Z,9.77
2023-02-28T01:18:56.205Z,6.57
2023-02-28T01:21:23.432Z,8.98
2023-02-28T01:23:50.720Z,7.80
2023-02-28T01:26:21.544Z,10.02
2023-02-28T01:28:48.834Z,7.53
2023-02-28T01:31:16.185Z,8.98
2023-02-28T01:33:43.414Z,8.70
2023-02-28T01:36:14.316Z,7.67
2023-02-28T01:38:41.530Z,8.45
2023-02-28T01:41:08.826Z,8.10
2023-02-28T01:43:45.217Z,10.07
2023-02-28T01:46:13.178Z,7.05
2023-02-28T01:48:42.452Z,6.75
2023-02-28T01:51:14.841Z,9.45
2023-02-28T01:53:52.786Z,10.68
2023-02-28T01:56:21.609Z,8.90
2023-02-28T01:58:49.421Z,9.60
2023-02-28T02:01:22.406Z,8.32
2023-02-28T02:03:56.115Z,6.90
2023-02-28T02:06:24.358Z,6.40
2023-02-28T02:08:51.776Z,6.30
2023-02-28T02:11:20.045Z,7.97
2023-02-28T02:13:47.209Z,7.57
2023-02-28T02:16:17.311Z,8.85
2023-02-28T02:19:03.407Z,8.88
2023-02-28T02:21:30.827Z,7.32
2023-02-28T02:24:17.172Z,7.25
2023-02-28T02:26:46.345Z,5.88
2023-02-28T02:29:18.913Z,6.03
2023-02-28T02:32:01.364Z,7.55
2023-02-28T02:34:35.786Z,7.70
2023-02-28T02:37:10.819Z,5.97
2023-02-28T02:39:47.275Z,7.65
2023-02-28T02:42:19.845Z,7.63
2023-02-28T02:44:55.938Z,9.57
2023-02-28T02:47:23.686Z,7.40
2023-02-28T02:49:51.513Z,9.25
2023-02-28T02:52:19.431Z,10.75
2023-02-28T02:54:47.465Z,8.43
2023-02-28T02:57:22.887Z,8.98
2023-02-28T02:59:50.339Z,9.05
2023-02-28T03:02:17.553Z,7.05
2023-02-28T03:04:45.717Z,6.07
2023-02-28T03:07:12.839Z,7.05
2023-02-28T03:09:40.031Z,6.15
2023-02-28T03:12:08.328Z,5.68
2023-02-28T03:14:41.607Z,5.53
2023-02-28T03:17:11.607Z,5.88
2023-02-28T03:19:47.337Z,7.40
2023-02-28T03:22:34.758Z,6.80
2023-02-28T03:25:01.895Z,7.80
2023-02-28T03:27:35.228Z,7.70
2023-02-28T03:30:06.370Z,5.97
2023-02-28T03:32:33.524Z,7.45
2023-02-28T03:35:06.991Z,6.57
2023-02-28T03:37:36.817Z,7.38
2023-02-28T03:40:09.659Z,6.32
2023-02-28T03:42:37.862Z,7.10
2023-02-28T03:45:11.029Z,4.53
2023-02-28T03:47:40.647Z,5.80
2023-02-28T03:50:11.125Z,6.07
2023-02-28T03:52:40.108Z,6.47
2023-02-28T03:55:10.167Z,6.97
2023-02-28T03:57:37.276Z,7.70
2023-02-28T04:00:06.909Z,7.78
2023-02-28T04:02:34.261Z,6.22
2023-02-28T04:05:02.052Z,4.88
2023-02-28T04:07:32.374Z,7.07
2023-02-28T04:09:59.527Z,5.40
2023-02-28T04:12:26.784Z,7.70
2023-02-28T04:14:53.979Z,5.15
2023-02-28T04:17:21.143Z,6.05
2023-02-28T04:19:48.353Z,7.03
2023-02-28T04:22:15.567Z,4.70
2023-02-28T04:24:42.772Z,7.32
2023-02-28T04:27:10.346Z,7.28
2023-02-28T04:29:37.647Z,8.20
2023-02-28T04:32:04.922Z,6.40
2023-02-28T04:34:32.437Z,7.63
2023-02-28T04:37:12.487Z,5.57
2023-02-28T04:39:40.823Z,6.15
2023-02-28T04:42:07.993Z,5.32
2023-02-28T04:44:35.228Z,6.20
2023-02-28T04:47:02.384Z,7.43
2023-02-28T04:49:29.545Z,6.43
2023-02-28T04:51:56.752Z,5.72
2023-02-28T04:54:23.962Z,7.15
2023-02-28T04:56:51.223Z,6.20
2023-02-28T04:59:18.555Z,6.97
2023-02-28T05:01:49.174Z,6.72
2023-02-28T05:04:16.418Z,8.27
2023-02-28T05:06:43.601Z,4.78
2023-02-28T05:09:12.592Z,4.85
2023-02-28T05:11:40.458Z,5.13
2023-02-28T05:14:08.685Z,5.18
2023-02-28T05:16:35.911Z,6.07
2023-02-28T05:19:03.165Z,5.88
2023-02-28T05:21:31.737Z,5.72
2023-02-28T05:24:00.994Z,6.35
2023-02-28T05:26:28.823Z,8.13
2023-02-28T05:28:56.508Z,6.57
2023-02-28T05:31:23.727Z,7.07
2023-02-28T05:33:50.890Z,8.50
2023-02-28T05:36:18.080Z,6.97
2023-02-28T05:38:45.243Z,5.72
2023-02-28T05:41:12.459Z,4.55
2023-02-28T05:43:39.721Z,6.45
2023-02-28T05:46:10.537Z,5.53
2023-02-28T05:48:37.962Z,5.57
2023-02-28T05:51:05.434Z,8.07
2023-02-28T05:53:32.636Z,9.70
2023-02-28T05:55:59.864Z,6.43
2023-02-28T05:58:30.245Z,8.40
2023-02-28T06:00:57.393Z,6.45
2023-02-28T06:03:24.580Z,6.32
2023-02-28T06:05:51.770Z,7.10
2023-02-28T06:08:19.442Z,7.45
2023-02-28T06:10:46.683Z,8.30
2023-02-28T06:13:13.924Z,7.22
2023-02-28T06:15:43.245Z,6.93
2023-02-28T06:18:10.741Z,5.88
2023-02-28T06:20:37.938Z,6.82
2023-02-28T06:23:05.160Z,6.53
2023-02-28T06:25:32.325Z,6.47
2023-02-28T06:27:59.603Z,6.90
2023-02-28T06:30:27.701Z,4.63
2023-02-28T06:32:55.423Z,8.55
2023-02-28T06:35:22.690Z,6.07
2023-02-28T06:37:49.933Z,7.85
2023-02-28T06:40:17.194Z,8.37
2023-02-28T06:42:44.550Z,7.38
2023-02-28T06:45:12.456Z,6.40
2023-02-28T06:47:40.215Z,5.68
2023-02-28T06:50:07.729Z,6.88
2023-02-28T06:52:37.194Z,5.68
2023-02-28T06:55:05.317Z,6.32
2023-02-28T06:57:32.629Z,6.72
2023-02-28T07:00:00.436Z,7.68
2023-02-28T07:02:27.942Z,7.20
2023-02-28T07:04:55.167Z,7.45
2023-02-28T07:07:22.513Z,7.18
2023-02-28T07:09:49.744Z,5.90
2023-02-28T07:12:17.033Z,6.28
2023-02-28T07:14:44.187Z,6.93
2023-02-28T07:17:13.148Z,5.97
2023-02-28T07:19:40.747Z,7.38
2023-02-28T07:22:08.145Z,5.53
2023-02-28T07:24:35.316Z,6.65
2023-02-28T07:27:02.583Z,6.97
2023-02-28T07:29:29.781Z,5.28
2023-02-28T07:31:56.996Z,6.45
2023-02-28T07:34:24.217Z,5.15
2023-02-28T07:36:54.578Z,7.63
2023-02-28T07:39:22.259Z,4.63
2023-02-28T07:41:49.558Z,6.37
2023-02-28T07:44:16.726Z,4.53
2023-02-28T07:46:43.956Z,6.25
2023-02-28T07:49:11.154Z,6.18
2023-02-28T07:51:38.407Z,4.85
2023-02-28T07:54:05.728Z,4.75
2023-02-28T07:56:33.079Z,6.10
2023-02-28T07:59:00.339Z,4.68
2023-02-28T08:01:27.728Z,3.72
2023-02-28T08:03:55.990Z,6.28
2023-02-28T08:06:23.917Z,5.82
2023-02-28T08:08:51.111Z,4.28
2023-02-28T08:11:18.349Z,3.88
2023-02-28T08:13:45.803Z,4.95
2023-02-28T08:16:15.371Z,3.17
2023-02-28T08:18:42.859Z,2.97
2023-02-28T08:21:10.609Z,21.67
2023-02-28T08:23:37.953Z,536.78
2023-02-28T08:26:05.289Z,475.80
2023-02-28T08:28:32.510Z,286.83
2023-02-28T08:31:00.020Z,169.50
2023-02-28T08:33:27.251Z,90.22
2023-02-28T08:35:57.632Z,72.97
2023-02-28T08:38:25.080Z,60.08
2023-02-28T08:40:52.220Z,22.58
2023-02-28T08:43:19.546Z,9.32
2023-02-28T08:45:46.761Z,4.97
2023-02-28T08:48:14.605Z,4.05
2023-02-28T08:50:41.775Z,2.73
2023-02-28T08:53:08.940Z,1.70
2023-02-28T08:55:36.141Z,2.20
2023-02-28T08:58:03.300Z,2.90
2023-02-28T09:00:30.560Z,3.10
2023-02-28T09:02:58.290Z,2.55
2023-02-28T09:05:25.487Z,3.30
2023-02-28T09:07:52.605Z,2.28
2023-02-28T09:10:19.833Z,2.10
2023-02-28T09:12:48.015Z,1.77
2023-02-28T09:15:15.241Z,2.70
2023-02-28T09:17:43.343Z,4.07
2023-02-28T09:20:11.998Z,3.65
2023-02-28T09:22:39.686Z,3.28
2023-02-28T09:25:07.006Z,4.10
2023-02-28T09:27:34.143Z,2.25
2023-02-28T09:30:01.308Z,4.90
2023-02-28T09:32:28.566Z,3.13
2023-02-28T09:34:55.819Z,3.33
2023-02-28T09:37:23.029Z,2.80
2023-02-28T09:39:50.168Z,2.38
2023-02-28T09:42:24.172Z,4.03
2023-02-28T09:44:51.361Z,2.67
2023-02-28T09:47:29.420Z,1.70
2023-02-28T09:49:56.606Z,3.70
2023-02-28T09:52:25.434Z,2.50
2023-02-28T09:54:52.642Z,2.35
2023-02-28T09:57:22.576Z,2.20
2023-02-28T10:00:11.409Z,2.17
2023-02-28T10:02:38.593Z,2.50
2023-02-28T10:05:13.702Z,2.63
2023-02-28T10:08:00.165Z,2.33
2023-02-28T10:10:31.835Z,2.80
2023-02-28T10:12:59.792Z,2.47
2023-02-28T10:15:27.604Z,1.90
2023-02-28T10:18:09.812Z,1.67
2023-02-28T10:20:39.108Z,1.80
2023-02-28T10:23:29.502Z,2.47
2023-02-28T10:26:03.451Z,3.03
2023-02-28T10:28:31.935Z,3.30
2023-02-28T10:30:59.602Z,2.22
2023-02-28T10:33:29.289Z,2.63
2023-02-28T10:35:56.656Z,2.40
2023-02-28T10:38:28.963Z,3.58
2023-02-28T10:41:16.041Z,2.67
2023-02-28T10:43:43.782Z,4.22
2023-02-28T10:46:10.998Z,2.72
2023-02-28T10:48:43.572Z,2.05
2023-02-28T10:51:12.143Z,4.35
2023-02-28T10:53:57.673Z,3.58
2023-02-28T10:56:27.150Z,5.07
2023-02-28T10:58:58.813Z,3.45
2023-02-28T11:01:32.475Z,3.17
2023-02-28T11:04:00.130Z,3.03
2023-02-28T11:06:27.392Z,7.45
2023-02-28T11:08:55.337Z,3.70
2023-02-28T11:11:22.897Z,2.25
2023-02-28T11:13:52.022Z,153.50
2023-02-28T11:16:19.298Z,102.70
2023-02-28T11:18:50.895Z,89.07
2023-02-28T11:21:19.028Z,7.32
2023-02-28T11:23:46.221Z,3.83
2023-02-28T11:26:13.457Z,3.28
2023-02-28T11:28:41.316Z,2.90
2023-02-28T11:31:08.564Z,3.85
2023-02-28T11:33:46.155Z,3.08
2023-02-28T11:36:14.890Z,3.20
2023-02-28T11:38:42.169Z,2.60
2023-02-28T11:41:09.316Z,2.63
2023-02-28T11:43:42.786Z,2.80
2023-02-28T11:46:19.091Z,2.60
2023-02-28T11:49:06.516Z,2.95
2023-02-28T11:51:37.082Z,2.95
2023-02-28T11:54:30.741Z,1.83
2023-02-28T11:57:03.583Z,3.30
2023-02-28T11:59:49.695Z,3.00
2023-02-28T12:02:22.975Z,1.85
2023-02-28T12:04:56.821Z,2.38
2023-02-28T12:07:40.609Z,4.53
2023-02-28T12:10:10.804Z,1.95
2023-02-28T12:12:47.210Z,2.85
2023-02-28T12:15:23.668Z,4.32
2023-02-28T12:17:54.060Z,3.10
2023-02-28T12:20:24.507Z,2.35
2023-02-28T12:23:00.873Z,2.72
2023-02-28T12:25:33.883Z,2.13
2023-02-28T12:28:01.012Z,3.50
2023-02-28T12:30:32.521Z,3.58
2023-02-28T12:33:07.519Z,2.92
2023-02-28T12:35:43.019Z,2.83
2023-02-28T12:38:18.705Z,3.10
2023-02-28T12:40:47.142Z,2.80
2023-02-28T12:43:14.752Z,5.15
2023-02-28T12:45:42.476Z,2.80
2023-02-28T12:48:11.762Z,2.63
2023-02-28T12:50:39.045Z,2.92
2023-02-28T12:53:15.472Z,1.55
2023-02-28T12:55:51.592Z,4.47
2023-02-28T12:58:41.798Z,3.30
2023-02-28T13:01:29.008Z,3.00
2023-02-28T13:03:56.594Z,2.35
2023-02-28T13:06:23.748Z,2.75
2023-02-28T13:09:03.019Z,2.25
2023-02-28T13:11:31.472Z,2.80
2023-02-28T13:14:05.355Z,2.97
2023-02-28T13:16:51.445Z,2.30
2023-02-28T13:19:19.358Z,2.40
2023-02-28T13:21:46.589Z,2.85
2023-02-28T13:24:14.631Z,3.13
2023-02-28T13:26:41.878Z,2.28
2023-02-28T13:29:11.917Z,2.10
2023-02-28T13:31:58.064Z,2.00
2023-02-28T13:34:25.226Z,1.70
2023-02-28T13:36:52.493Z,1.83
2023-02-28T13:39:39.143Z,2.40
2023-02-28T13:42:24.156Z,2.38
2023-02-28T13:45:06.344Z,1.63
2023-02-28T13:47:33.717Z,2.90
2023-02-28T13:50:17.913Z,2.08
2023-02-28T13:52:57.530Z,1.92
2023-02-28T13:55:26.464Z,3.35
2023-02-28T13:58:10.531Z,2.28
2023-02-28T14:00:46.092Z,3.13
2023-02-28T14:03:31.912Z,3.47
2023-02-28T14:06:12.358Z,3.42
2023-02-28T14:08:39.558Z,3.85
2023-02-28T14:11:07.673Z,4.05
2023-02-28T14:13:46.148Z,17.03
2023-02-28T14:16:17.961Z,26.77
2023-02-28T14:19:01.725Z,3.17
2023-02-28T14:21:29.977Z,3.97
2023-02-28T14:24:12.643Z,4.82
2023-02-28T14:26:56.413Z,6.80
2023-02-28T14:29:23.584Z,2.67
2023-02-28T14:31:59.975Z,5.10
2023-02-28T14:34:36.399Z,12.65
2023-02-28T14:37:04.110Z,9.50
2023-02-28T14:39:34.416Z,4.00
2023-02-28T14:42:05.652Z,1.70
2023-02-28T14:44:32.983Z,1.60
2023-02-28T14:47:07.703Z,3.15
2023-02-28T14:49:38.964Z,2.63
2023-02-28T14:52:14.965Z,2.83
2023-02-28T14:54:42.257Z,1.90
2023-02-28T14:57:22.633Z,2.08
2023-02-28T14:59:58.329Z,3.40
2023-02-28T15:02:26.321Z,4.60
2023-02-28T15:05:12.003Z,3.63
2023-02-28T15:07:39.257Z,2.78
2023-02-28T15:10:18.889Z,2.80
2023-02-28T15:12:59.265Z,2.42
2023-02-28T15:15:40.571Z,2.28
2023-02-28T15:18:17.973Z,3.22
2023-02-28T15:20:45.494Z,2.80
2023-02-28T15:23:12.741Z,2.40
2023-02-28T15:25:39.880Z,3.05
2023-02-28T15:28:07.133Z,2.38
2023-02-28T15:30:34.384Z,2.40
2023-02-28T15:33:04.660Z,1.70
2023-02-28T15:35:32.645Z,2.70
2023-02-28T15:37:59.826Z,3.50
2023-02-28T15:40:42.924Z,3.80
2023-02-28T15:43:16.909Z,3.17
2023-02-28T15:46:02.962Z,3.53
2023-02-28T15:48:30.664Z,2.83
2023-02-28T15:51:06.959Z,2.80
2023-02-28T15:53:35.319Z,2.60
2023-02-28T15:56:23.106Z,2.27
2023-02-28T15:58:50.318Z,2.85
2023-02-28T16:01:23.110Z,2.53
2023-02-28T16:03:50.944Z,1.98
2023-02-28T16:06:18.124Z,3.05
2023-02-28T16:08:46.233Z,2.85
2023-02-28T16:11:13.448Z,3.40
2023-02-28T16:13:40.641Z,2.85
2023-02-28T16:16:08.009Z,1.70
2023-02-28T16:18:35.147Z,2.20
2023-02-28T16:21:02.325Z,2.20
2023-02-28T16:23:29.576Z,2.10
2023-02-28T16:25:56.906Z,3.22
2023-02-28T16:28:30.869Z,3.03
2023-02-28T16:30:58.142Z,1.42
2023-02-28T16:33:25.392Z,2.30
2023-02-28T16:35:53.256Z,3.67
2023-02-28T16:38:20.652Z,3.55
2023-02-28T16:40:47.809Z,3.35
2023-02-28T16:43:19.978Z,2.17
2023-02-28T16:45:47.170Z,3.10
2023-02-28T16:48:15.181Z,2.50
2023-02-28T16:50:42.450Z,1.80
2023-02-28T16:53:09.600Z,2.53
2023-02-28T16:55:36.804Z,2.45
2023-02-28T16:58:04.042Z,3.63
2023-02-28T17:00:32.291Z,3.05
2023-02-28T17:03:00.346Z,2.80
2023-02-28T17:05:28.064Z,6.40
2023-02-28T17:07:55.197Z,5.22
2023-02-28T17:10:23.458Z,6.27
2023-02-28T17:12:50.676Z,6.25
2023-02-28T17:15:18.537Z,6.55
2023-02-28T17:17:45.804Z,10.52
2023-02-28T17:20:23.359Z,10.38
2023-02-28T17:22:51.095Z,7.60
2023-02-28T17:25:18.407Z,5.97
2023-02-28T17:27:45.614Z,4.68
2023-02-28T17:30:16.543Z,4.82
2023-02-28T17:32:43.772Z,3.85
2023-02-28T17:35:11.106Z,5.90
2023-02-28T17:37:38.369Z,4.72
2023-02-28T17:40:06.025Z,5.07
2023-02-28T17:42:33.221Z,4.82
2023-02-28T17:45:00.405Z,3.97
2023-02-28T17:47:27.610Z,3.90
2023-02-28T17:49:54.762Z,3.80
2023-02-28T17:52:23.179Z,3.05
2023-02-28T17:54:50.352Z,3.33
2023-02-28T17:57:18.406Z,3.80
2023-02-28T17:59:45.578Z,3.28
2023-02-28T18:02:16.282Z,3.25
2023-02-28T18:04:43.484Z,7.80
2023-02-28T18:07:11.136Z,3.13
2023-02-28T18:09:38.344Z,3.35
2023-02-28T18:12:05.650Z,2.70
2023-02-28T18:14:32.916Z,3.58
2023-02-28T18:17:00.160Z,3.45
2023-02-28T18:19:27.308Z,4.57
2023-02-28T18:21:55.354Z,5.07
2023-02-28T18:24:23.077Z,7.93
2023-02-28T18:26:51.442Z,24.48
2023-02-28T18:29:19.711Z,16.20
2023-02-28T18:31:47.179Z,13.02
2023-02-28T18:34:15.152Z,21.50
2023-02-28T18:36:42.432Z,26.10
2023-02-28T18:39:11.990Z,36.92
2023-02-28T18:41:39.534Z,44.83
2023-02-28T18:44:17.705Z,43.40
2023-02-28T18:46:46.592Z,31.20
2023-02-28T18:49:14.007Z,18.38
2023-02-28T18:51:45.058Z,16.38
2023-02-28T18:54:12.756Z,11.63
2023-02-28T18:56:39.981Z,11.60
2023-02-28T18:59:07.125Z,10.30
2023-02-28T19:01:34.650Z,10.50
2023-02-28T19:04:01.978Z,10.15
2023-02-28T19:06:32.426Z,7.78
2023-02-28T19:09:00.363Z,9.95
2023-02-28T19:11:27.722Z,13.32
2023-02-28T19:13:54.912Z,14.75
2023-02-28T19:16:22.379Z,14.13
2023-02-28T19:18:49.585Z,13.00
2023-02-28T19:21:17.427Z,15.70
2023-02-28T19:23:44.732Z,15.68
2023-02-28T19:26:13.494Z,15.35
2023-02-28T19:28:40.758Z,13.18
2023-02-28T19:31:17.873Z,14.60
2023-02-28T19:33:45.105Z,11.68
2023-02-28T19:36:12.683Z,16.17
2023-02-28T19:38:40.202Z,11.48
2023-02-28T19:41:08.453Z,11.70
2023-02-28T19:43:35.726Z,11.15
2023-02-28T19:46:02.976Z,12.50
2023-02-28T19:48:30.162Z,17.58
2023-02-28T19:50:58.349Z,15.82
2023-02-28T19:53:26.868Z,15.02
2023-02-28T19:55:54.817Z,15.48
2023-02-28T19:58:21.982Z,11.15
2023-02-28T20:00:49.336Z,15.27
2023-02-28T20:03:18.412Z,14.82
2023-02-28T20:05:45.997Z,16.48
2023-02-28T20:08:13.155Z,16.98
2023-02-28T20:10:40.399Z,13.87
2023-02-28T20:13:07.630Z,15.23
2023-02-28T20:15:34.828Z,13.27
2023-02-28T20:18:01.988Z,11.87
2023-02-28T20:20:29.150Z,13.80
2023-02-28T20:22:56.307Z,13.57
2023-02-28T20:25:23.570Z,11.73
2023-02-28T20:27:50.773Z,13.70
2023-02-28T20:30:18.065Z,13.77
2023-02-28T20:32:45.292Z,12.82
2023-02-28T20:35:12.536Z,10.90
2023-02-28T20:37:39.860Z,13.25
2023-02-28T20:40:07.420Z,11.20
2023-02-28T20:42:34.637Z,10.23
2023-02-28T20:45:01.817Z,9.05
2023-02-28T20:47:29.841Z,9.23
2023-02-28T20:49:56.980Z,11.25
2023-02-28T20:52:24.171Z,10.20
2023-02-28T20:54:51.368Z,10.05
2023-02-28T20:57:18.532Z,10.53
2023-02-28T20:59:45.823Z,11.90
2023-02-28T21:02:15.509Z,12.30
2023-02-28T21:04:42.683Z,13.52
2023-02-28T21:07:09.929Z,9.45
2023-02-28T21:09:37.273Z,11.40
2023-02-28T21:12:04.520Z,12.35
2023-02-28T21:14:32.251Z,11.95
2023-02-28T21:16:59.412Z,9.35
2023-02-28T21:19:26.609Z,9.70
2023-02-28T21:21:54.667Z,10.93
2023-02-28T21:24:22.389Z,10.60
2023-02-28T21:26:49.625Z,9.85
2023-02-28T21:29:16.903Z,10.77
2023-02-28T21:31:44.091Z,9.63
2023-02-28T21:34:11.360Z,9.00
2023-02-28T21:36:39.663Z,12.13
2023-02-28T21:39:23.329Z,10.38
2023-02-28T21:41:50.570Z,12.52
2023-02-28T21:44:22.672Z,12.18
2023-02-28T21:46:50.823Z,12.45
2023-02-28T21:49:18.128Z,11.77
2023-02-28T21:51:45.369Z,12.20
2023-02-28T21:54:12.673Z,12.15
2023-02-28T21:56:39.983Z,12.75
2023-02-28T21:59:09.348Z,13.32
2023-02-28T22:01:40.516Z,11.95
2023-02-28T22:04:08.459Z,12.57
2023-02-28T22:06:37.051Z,13.60
2023-02-28T22:09:06.023Z,10.75
2023-02-28T22:11:33.608Z,10.60
2023-02-28T22:14:00.944Z,10.88
2023-02-28T22:16:31.268Z,11.93
2023-02-28T22:19:00.441Z,11.43
2023-02-28T22:21:27.686Z,10.20
2023-02-28T22:23:54.878Z,12.27
2023-02-28T22:26:22.430Z,10.32
2023-02-28T22:28:49.933Z,9.35
2023-02-28T22:31:21.073Z,11.68
2023-02-28T22:33:48.645Z,11.00
2023-02-28T22:36:16.113Z,9.50
2023-02-28T22:38:43.557Z,7.55
2023-02-28T22:41:11.824Z,7.43
2023-02-28T22:43:39.603Z,9.57
2023-02-28T22:46:07.620Z,7.53
2023-02-28T22:48:35.280Z,8.67
2023-02-28T22:51:03.311Z,7.28
2023-02-28T22:53:31.341Z,7.28
2023-02-28T22:55:58.595Z,7.65
2023-02-28T22:58:25.877Z,6.82
2023-02-28T23:00:57.820Z,8.15
2023-02-28T23:03:25.352Z,6.82
2023-02-28T23:05:52.939Z,6.25
2023-02-28T23:08:23.405Z,9.32
2023-02-28T23:10:51.017Z,9.27
2023-02-28T23:13:20.587Z,8.77
2023-02-28T23:15:47.911Z,8.63
2023-02-28T23:18:15.641Z,7.03
2023-02-28T23:20:42.978Z,7.97
2023-02-28T23:23:10.275Z,11.23
2023-02-28T23:25:40.410Z,8.85
2023-02-28T23:28:08.343Z,8.43
2023-02-28T23:30:36.791Z,6.90
2023-02-28T23:33:05.678Z,9.75
2023-02-28T23:35:33.421Z,7.07
2023-02-28T23:38:00.709Z,8.33
2023-02-28T23:40:27.988Z,6.53
2023-02-28T23:42:55.181Z,7.00
2023-02-28T23:45:22.365Z,7.07
2023-02-28T23:47:49.520Z,6.40
2023-02-28T23:50:16.885Z,6.10
2023-02-28T23:52:44.017Z,6.13
2023-02-28T23:55:11.447Z,7.10
2023-02-28T23:57:38.751Z,5.88
